Hauptseite
METAR-TAF:

METAR-TAF

Flughäfen :

Ancona, Italien

Breite: 43-37N, Länge: 013-22E, Höhe: 12 m

Beobachtung

Neuester Wetterbericht von vor 39 Minuten, um 17:50 UTC
Wind 5 kt aus West, variierte zwischen West/Südwest und Nordwest
Temperatur 6°C
Luftfeuchtigkeit 93%
Luftdruck 1008 hPa
Sichtweite 10 km oder mehr
Leicht bewölkt in der Höhe von 700 ft
Durchbrochene Bewölkung in der Höhe von 1200 ft
Leichtregen

METAR: LIPY 201750Z 27005KT 250V310 9999 -RA FEW007 BKN012 06/05 Q1008

Zeit: 19:29 (18:29 UTC)

Prognose

Neuester Wetterbericht von vor 1 Stunde und 29 Minuten, um 17:00 UTC
Gültige Prognose vom 20 um 18 UTC bis 21 um 18 UTC
Wind 8 kt aus Nord/Nordwest
Sichtweite: 8000 m
Durchbrochene Bewölkung in der Höhe von 2000 ft
Zeitweise
vom 20 um 18 UTC bis 21 um 03 UTC
Sichtweite: 4000 m
Regen

TAF: LIPY 201700Z 2018/2118 34008KT 8000 BKN020 TEMPO 2018/2103 4000 RA

Wetterbeobachtungen und Prognosen von mehr als 4000 Flughäfen (METAR und TAF Bericht).

Die verfügbaren Stationen werden durch gelbe und rote Markierungen auf der Karte dargestellt.

Führen Sie die Maus auf sie, um den Namen der Station zu sehen.

Darauf klicken, um die Beobachtung von Wetterbeobachtungen und Prognosen zu sehen.

Um die Karte zu ändern : klicken Sie auf den grünen Tasten mit einem schwarzen Kreuz Zum Vergrößern, auf den grünen Button mit einem Gedankenstrich zu verkleinern, oder auf die grünen Pfeile für benachbarte Karten.


METAR-TAF: